sensor_id;sensor_type;location;lat;lon;timestamp;P1;durP1;ratioP1;P2;durP2;ratioP2
75340;SDS011;64091;47.562;18.920;2022-10-30T00:00:28;27.10;;;17.90;;
75340;SDS011;64091;47.562;18.920;2022-10-30T00:02:54;22.80;;;17.10;;
75340;SDS011;64091;47.562;18.920;2022-10-30T00:05:19;23.60;;;16.90;;
75340;SDS011;64091;47.562;18.920;2022-10-30T00:07:45;20.50;;;15.60;;
75340;SDS011;64091;47.562;18.920;2022-10-30T00:10:12;24.00;;;17.90;;
75340;SDS011;64091;47.562;18.920;2022-10-30T00:12:38;26.90;;;19.30;;
75340;SDS011;64091;47.562;18.920;2022-10-30T00:15:03;25.40;;;16.50;;
75340;SDS011;64091;47.562;18.920;2022-10-30T00:17:29;21.70;;;15.60;;
75340;SDS011;64091;47.562;18.920;2022-10-30T00:19:54;26.80;;;16.70;;
75340;SDS011;64091;47.562;18.920;2022-10-30T00:22:20;23.00;;;16.80;;
75340;SDS011;64091;47.562;18.920;2022-10-30T00:24:45;27.40;;;18.60;;
75340;SDS011;64091;47.562;18.920;2022-10-30T00:27:11;22.00;;;17.10;;
75340;SDS011;64091;47.562;18.920;2022-10-30T00:29:36;20.20;;;15.70;;
75340;SDS011;64091;47.562;18.920;2022-10-30T00:32:01;22.20;;;16.40;;
75340;SDS011;64091;47.562;18.920;2022-10-30T00:34:27;21.80;;;16.10;;
75340;SDS011;64091;47.562;18.920;2022-10-30T00:36:52;18.60;;;14.10;;
75340;SDS011;64091;47.562;18.920;2022-10-30T00:39:18;20.50;;;15.30;;
75340;SDS011;64091;47.562;18.920;2022-10-30T00:41:43;23.10;;;16.70;;
75340;SDS011;64091;47.562;18.920;2022-10-30T00:47:13;20.90;;;14.60;;
75340;SDS011;64091;47.562;18.920;2022-10-30T00:49:58;19.10;;;13.90;;
75340;SDS011;64091;47.562;18.920;2022-10-30T00:52:28;18.90;;;14.20;;
75340;SDS011;64091;47.562;18.920;2022-10-30T00:54:56;22.20;;;15.50;;
75340;SDS011;64091;47.562;18.920;2022-10-30T00:57:23;22.70;;;16.70;;
75340;SDS011;64091;47.562;18.920;2022-10-30T00:59:48;22.90;;;16.80;;
75340;SDS011;64091;47.562;18.920;2022-10-30T01:02:14;22.70;;;16.90;;
75340;SDS011;64091;47.562;18.920;2022-10-30T01:04:40;23.70;;;16.70;;
75340;SDS011;64091;47.562;18.920;2022-10-30T01:07:08;22.00;;;16.00;;
75340;SDS011;64091;47.562;18.920;2022-10-30T01:09:37;27.90;;;18.80;;
75340;SDS011;64091;47.562;18.920;2022-10-30T01:12:04;21.30;;;15.40;;
75340;SDS011;64091;47.562;18.920;2022-10-30T01:14:30;21.10;;;16.60;;
75340;SDS011;64091;47.562;18.920;2022-10-30T01:16:58;23.40;;;16.80;;
75340;SDS011;64091;47.562;18.920;2022-10-30T01:39:24;19.50;;;14.30;;
75340;SDS011;64091;47.562;18.920;2022-10-30T01:41:49;21.10;;;15.50;;
75340;SDS011;64091;47.562;18.920;2022-10-30T01:44:18;17.40;;;13.00;;
75340;SDS011;64091;47.562;18.920;2022-10-30T01:55:30;16.80;;;13.00;;
75340;SDS011;64091;47.562;18.920;2022-10-30T01:58:06;20.50;;;14.50;;
75340;SDS011;64091;47.562;18.920;2022-10-30T02:00:44;18.30;;;14.00;;
75340;SDS011;64091;47.562;18.920;2022-10-30T02:03:11;19.50;;;14.90;;
75340;SDS011;64091;47.562;18.920;2022-10-30T02:05:40;18.50;;;14.30;;
75340;SDS011;64091;47.562;18.920;2022-10-30T02:08:08;18.50;;;14.00;;
75340;SDS011;64091;47.562;18.920;2022-10-30T02:10:46;19.70;;;13.30;;
75340;SDS011;64091;47.562;18.920;2022-10-30T02:13:13;18.50;;;14.30;;
75340;SDS011;64091;47.562;18.920;2022-10-30T02:15:48;17.60;;;12.30;;
75340;SDS011;64091;47.562;18.920;2022-10-30T02:18:14;15.60;;;12.20;;
75340;SDS011;64091;47.562;18.920;2022-10-30T02:20:39;19.10;;;13.90;;
75340;SDS011;64091;47.562;18.920;2022-10-30T02:23:08;19.10;;;13.60;;
75340;SDS011;64091;47.562;18.920;2022-10-30T02:28:35;16.80;;;12.90;;
75340;SDS011;64091;47.562;18.920;2022-10-30T02:31:02;19.40;;;13.90;;
75340;SDS011;64091;47.562;18.920;2022-10-30T02:38:42;18.40;;;13.10;;
75340;SDS011;64091;47.562;18.920;2022-10-30T02:41:09;19.40;;;13.50;;
75340;SDS011;64091;47.562;18.920;2022-10-30T02:43:35;20.50;;;15.30;;
75340;SDS011;64091;47.562;18.920;2022-10-30T02:46:01;15.50;;;11.10;;
75340;SDS011;64091;47.562;18.920;2022-10-30T02:48:29;18.30;;;13.10;;
75340;SDS011;64091;47.562;18.920;2022-10-30T02:50:58;18.20;;;13.30;;
75340;SDS011;64091;47.562;18.920;2022-10-30T02:53:27;15.80;;;11.50;;
75340;SDS011;64091;47.562;18.920;2022-10-30T02:55:53;19.50;;;13.70;;
75340;SDS011;64091;47.562;18.920;2022-10-30T02:58:19;17.00;;;12.80;;
75340;SDS011;64091;47.562;18.920;2022-10-30T03:00:44;18.30;;;13.50;;
75340;SDS011;64091;47.562;18.920;2022-10-30T03:03:12;16.20;;;11.60;;
75340;SDS011;64091;47.562;18.920;2022-10-30T03:05:37;16.80;;;12.80;;
75340;SDS011;64091;47.562;18.920;2022-10-30T03:08:03;17.50;;;12.10;;
75340;SDS011;64091;47.562;18.920;2022-10-30T03:10:28;15.40;;;11.40;;
75340;SDS011;64091;47.562;18.920;2022-10-30T03:12:54;20.00;;;13.80;;
75340;SDS011;64091;47.562;18.920;2022-10-30T03:15:19;17.70;;;12.50;;
75340;SDS011;64091;47.562;18.920;2022-10-30T03:17:45;18.20;;;12.90;;
75340;SDS011;64091;47.562;18.920;2022-10-30T03:20:10;18.10;;;13.30;;
75340;SDS011;64091;47.562;18.920;2022-10-30T03:22:36;17.60;;;12.80;;
75340;SDS011;64091;47.562;18.920;2022-10-30T03:25:01;17.60;;;12.70;;
75340;SDS011;64091;47.562;18.920;2022-10-30T03:27:38;17.00;;;12.80;;
75340;SDS011;64091;47.562;18.920;2022-10-30T03:30:03;15.80;;;11.80;;
75340;SDS011;64091;47.562;18.920;2022-10-30T03:32:29;16.60;;;12.40;;
75340;SDS011;64091;47.562;18.920;2022-10-30T03:34:55;17.80;;;12.80;;
75340;SDS011;64091;47.562;18.920;2022-10-30T03:37:20;17.40;;;12.70;;
75340;SDS011;64091;47.562;18.920;2022-10-30T03:39:46;17.70;;;13.30;;
75340;SDS011;64091;47.562;18.920;2022-10-30T03:42:14;16.90;;;12.70;;
75340;SDS011;64091;47.562;18.920;2022-10-30T03:44:39;17.60;;;12.90;;
75340;SDS011;64091;47.562;18.920;2022-10-30T03:49:35;16.00;;;11.40;;
75340;SDS011;64091;47.562;18.920;2022-10-30T03:52:04;16.80;;;11.40;;
75340;SDS011;64091;47.562;18.920;2022-10-30T03:54:33;16.00;;;11.70;;
75340;SDS011;64091;47.562;18.920;2022-10-30T03:57:01;17.90;;;12.90;;
75340;SDS011;64091;47.562;18.920;2022-10-30T04:02:01;18.60;;;13.30;;
75340;SDS011;64091;47.562;18.920;2022-10-30T04:04:26;19.00;;;12.70;;
75340;SDS011;64091;47.562;18.920;2022-10-30T04:06:52;15.70;;;11.40;;
75340;SDS011;64091;47.562;18.920;2022-10-30T04:09:27;16.20;;;12.50;;
75340;SDS011;64091;47.562;18.920;2022-10-30T04:14:22;19.10;;;13.10;;
75340;SDS011;64091;47.562;18.920;2022-10-30T04:16:50;18.80;;;13.80;;
75340;SDS011;64091;47.562;18.920;2022-10-30T04:19:18;20.90;;;14.00;;
75340;SDS011;64091;47.562;18.920;2022-10-30T04:21:44;17.60;;;12.60;;
75340;SDS011;64091;47.562;18.920;2022-10-30T04:24:11;21.20;;;14.60;;
75340;SDS011;64091;47.562;18.920;2022-10-30T04:26:40;20.50;;;14.50;;
75340;SDS011;64091;47.562;18.920;2022-10-30T04:29:05;17.90;;;12.80;;
75340;SDS011;64091;47.562;18.920;2022-10-30T04:31:31;24.90;;;14.20;;
75340;SDS011;64091;47.562;18.920;2022-10-30T04:33:59;28.50;;;15.10;;
75340;SDS011;64091;47.562;18.920;2022-10-30T04:36:25;21.70;;;14.40;;
75340;SDS011;64091;47.562;18.920;2022-10-30T04:38:57;18.90;;;13.10;;
75340;SDS011;64091;47.562;18.920;2022-10-30T04:41:27;19.80;;;14.00;;
75340;SDS011;64091;47.562;18.920;2022-10-30T04:43:55;20.70;;;13.20;;
75340;SDS011;64091;47.562;18.920;2022-10-30T04:46:23;19.80;;;13.60;;
75340;SDS011;64091;47.562;18.920;2022-10-30T04:48:48;19.60;;;13.50;;
75340;SDS011;64091;47.562;18.920;2022-10-30T04:51:13;22.00;;;14.30;;
75340;SDS011;64091;47.562;18.920;2022-10-30T04:53:40;19.20;;;12.80;;
75340;SDS011;64091;47.562;18.920;2022-10-30T04:56:06;17.90;;;12.70;;
75340;SDS011;64091;47.562;18.920;2022-10-30T04:58:32;18.10;;;12.30;;
75340;SDS011;64091;47.562;18.920;2022-10-30T05:01:01;19.30;;;13.50;;
75340;SDS011;64091;47.562;18.920;2022-10-30T05:03:27;19.30;;;13.60;;
75340;SDS011;64091;47.562;18.920;2022-10-30T05:05:56;19.00;;;13.20;;
75340;SDS011;64091;47.562;18.920;2022-10-30T05:08:28;22.90;;;13.90;;
75340;SDS011;64091;47.562;18.920;2022-10-30T05:10:55;20.40;;;13.60;;
75340;SDS011;64091;47.562;18.920;2022-10-30T05:13:21;19.50;;;14.20;;
75340;SDS011;64091;47.562;18.920;2022-10-30T05:15:46;19.50;;;13.80;;
75340;SDS011;64091;47.562;18.920;2022-10-30T05:18:14;21.00;;;14.10;;
75340;SDS011;64091;47.562;18.920;2022-10-30T05:20:45;24.30;;;15.70;;
75340;SDS011;64091;47.562;18.920;2022-10-30T05:23:11;20.80;;;15.20;;
75340;SDS011;64091;47.562;18.920;2022-10-30T05:25:38;36.40;;;17.30;;
75340;SDS011;64091;47.562;18.920;2022-10-30T05:28:04;19.60;;;13.10;;
75340;SDS011;64091;47.562;18.920;2022-10-30T05:30:34;20.60;;;14.20;;
75340;SDS011;64091;47.562;18.920;2022-10-30T05:33:00;21.90;;;14.10;;
75340;SDS011;64091;47.562;18.920;2022-10-30T05:35:33;24.90;;;16.00;;
75340;SDS011;64091;47.562;18.920;2022-10-30T05:38:00;19.10;;;13.50;;
75340;SDS011;64091;47.562;18.920;2022-10-30T05:40:26;18.10;;;12.30;;
75340;SDS011;64091;47.562;18.920;2022-10-30T05:42:52;21.60;;;14.20;;
75340;SDS011;64091;47.562;18.920;2022-10-30T05:45:17;17.70;;;12.90;;
75340;SDS011;64091;47.562;18.920;2022-10-30T05:47:43;21.70;;;14.70;;
75340;SDS011;64091;47.562;18.920;2022-10-30T05:50:09;20.70;;;14.10;;
75340;SDS011;64091;47.562;18.920;2022-10-30T05:52:37;31.10;;;16.20;;
75340;SDS011;64091;47.562;18.920;2022-10-30T05:55:03;19.30;;;13.60;;
75340;SDS011;64091;47.562;18.920;2022-10-30T05:57:29;21.50;;;14.30;;
75340;SDS011;64091;47.562;18.920;2022-10-30T05:59:56;21.00;;;14.20;;
75340;SDS011;64091;47.562;18.920;2022-10-30T06:02:22;18.40;;;12.80;;
75340;SDS011;64091;47.562;18.920;2022-10-30T06:04:47;21.20;;;14.50;;
75340;SDS011;64091;47.562;18.920;2022-10-30T06:07:12;23.00;;;14.10;;
75340;SDS011;64091;47.562;18.920;2022-10-30T06:09:38;19.80;;;13.70;;
75340;SDS011;64091;47.562;18.920;2022-10-30T06:12:03;19.50;;;13.30;;
75340;SDS011;64091;47.562;18.920;2022-10-30T06:14:29;20.40;;;13.70;;
75340;SDS011;64091;47.562;18.920;2022-10-30T06:16:54;22.80;;;14.30;;
75340;SDS011;64091;47.562;18.920;2022-10-30T06:19:19;20.90;;;13.80;;
75340;SDS011;64091;47.562;18.920;2022-10-30T06:21:45;17.20;;;11.60;;
75340;SDS011;64091;47.562;18.920;2022-10-30T06:24:11;17.80;;;12.90;;
75340;SDS011;64091;47.562;18.920;2022-10-30T06:26:36;20.00;;;13.30;;
75340;SDS011;64091;47.562;18.920;2022-10-30T06:29:02;21.60;;;13.80;;
75340;SDS011;64091;47.562;18.920;2022-10-30T06:31:27;22.70;;;14.70;;
75340;SDS011;64091;47.562;18.920;2022-10-30T06:33:52;20.80;;;12.60;;
75340;SDS011;64091;47.562;18.920;2022-10-30T06:36:18;35.60;;;14.50;;
75340;SDS011;64091;47.562;18.920;2022-10-30T06:38:43;17.70;;;12.40;;
75340;SDS011;64091;47.562;18.920;2022-10-30T06:41:09;20.80;;;12.50;;
75340;SDS011;64091;47.562;18.920;2022-10-30T06:43:34;15.80;;;10.90;;
75340;SDS011;64091;47.562;18.920;2022-10-30T06:46:00;16.10;;;10.80;;
75340;SDS011;64091;47.562;18.920;2022-10-30T06:48:25;18.80;;;13.00;;
75340;SDS011;64091;47.562;18.920;2022-10-30T06:50:57;18.00;;;12.60;;
75340;SDS011;64091;47.562;18.920;2022-10-30T06:53:24;15.60;;;11.20;;
75340;SDS011;64091;47.562;18.920;2022-10-30T06:55:56;17.90;;;12.40;;
75340;SDS011;64091;47.562;18.920;2022-10-30T06:58:23;16.10;;;11.50;;
75340;SDS011;64091;47.562;18.920;2022-10-30T07:00:48;18.10;;;12.50;;
75340;SDS011;64091;47.562;18.920;2022-10-30T07:03:14;19.50;;;12.90;;
75340;SDS011;64091;47.562;18.920;2022-10-30T07:05:39;18.60;;;13.00;;
75340;SDS011;64091;47.562;18.920;2022-10-30T07:08:05;20.60;;;12.60;;
75340;SDS011;64091;47.562;18.920;2022-10-30T07:10:30;18.70;;;12.30;;
75340;SDS011;64091;47.562;18.920;2022-10-30T07:12:56;16.40;;;11.20;;
75340;SDS011;64091;47.562;18.920;2022-10-30T07:15:22;17.20;;;11.60;;
75340;SDS011;64091;47.562;18.920;2022-10-30T07:17:55;17.90;;;11.30;;
75340;SDS011;64091;47.562;18.920;2022-10-30T07:20:22;18.20;;;12.10;;
75340;SDS011;64091;47.562;18.920;2022-10-30T07:22:48;15.40;;;11.00;;
75340;SDS011;64091;47.562;18.920;2022-10-30T07:25:16;18.20;;;12.10;;
75340;SDS011;64091;47.562;18.920;2022-10-30T07:27:43;18.50;;;11.60;;
75340;SDS011;64091;47.562;18.920;2022-10-30T07:30:10;19.60;;;12.30;;
75340;SDS011;64091;47.562;18.920;2022-10-30T07:32:37;16.10;;;11.60;;
75340;SDS011;64091;47.562;18.920;2022-10-30T07:35:02;16.10;;;11.20;;
75340;SDS011;64091;47.562;18.920;2022-10-30T07:37:28;16.60;;;11.10;;
75340;SDS011;64091;47.562;18.920;2022-10-30T07:39:54;15.50;;;10.90;;
75340;SDS011;64091;47.562;18.920;2022-10-30T07:42:19;18.40;;;11.90;;
75340;SDS011;64091;47.562;18.920;2022-10-30T07:44:45;17.20;;;10.70;;
75340;SDS011;64091;47.562;18.920;2022-10-30T07:47:10;16.30;;;11.30;;
75340;SDS011;64091;47.562;18.920;2022-10-30T07:49:36;15.80;;;11.00;;
75340;SDS011;64091;47.562;18.920;2022-10-30T07:52:01;16.70;;;11.20;;
75340;SDS011;64091;47.562;18.920;2022-10-30T07:54:29;16.60;;;11.10;;
75340;SDS011;64091;47.562;18.920;2022-10-30T07:56:54;20.20;;;12.20;;
75340;SDS011;64091;47.562;18.920;2022-10-30T07:59:19;16.30;;;10.90;;
75340;SDS011;64091;47.562;18.920;2022-10-30T08:01:45;15.30;;;10.90;;
75340;SDS011;64091;47.562;18.920;2022-10-30T08:04:10;15.00;;;11.00;;
75340;SDS011;64091;47.562;18.920;2022-10-30T08:06:38;15.50;;;10.80;;
75340;SDS011;64091;47.562;18.920;2022-10-30T08:09:04;12.50;;;9.10;;
75340;SDS011;64091;47.562;18.920;2022-10-30T08:11:32;15.20;;;10.90;;
75340;SDS011;64091;47.562;18.920;2022-10-30T08:13:57;14.60;;;11.00;;
75340;SDS011;64091;47.562;18.920;2022-10-30T08:16:23;15.40;;;10.20;;
75340;SDS011;64091;47.562;18.920;2022-10-30T08:18:49;13.00;;;8.90;;
75340;SDS011;64091;47.562;18.920;2022-10-30T08:21:15;12.10;;;8.70;;
75340;SDS011;64091;47.562;18.920;2022-10-30T08:23:40;17.80;;;10.70;;
75340;SDS011;64091;47.562;18.920;2022-10-30T08:26:05;15.20;;;10.50;;
75340;SDS011;64091;47.562;18.920;2022-10-30T08:28:31;13.00;;;9.20;;
75340;SDS011;64091;47.562;18.920;2022-10-30T08:30:57;18.40;;;10.80;;
75340;SDS011;64091;47.562;18.920;2022-10-30T08:33:23;15.80;;;11.70;;
75340;SDS011;64091;47.562;18.920;2022-10-30T08:35:49;19.40;;;11.40;;
75340;SDS011;64091;47.562;18.920;2022-10-30T08:38:16;14.10;;;10.50;;
75340;SDS011;64091;47.562;18.920;2022-10-30T08:40:42;17.40;;;11.20;;
75340;SDS011;64091;47.562;18.920;2022-10-30T08:43:07;14.30;;;9.80;;
75340;SDS011;64091;47.562;18.920;2022-10-30T08:45:33;14.80;;;9.90;;
75340;SDS011;64091;47.562;18.920;2022-10-30T08:47:59;18.00;;;11.50;;
75340;SDS011;64091;47.562;18.920;2022-10-30T08:50:27;14.90;;;10.10;;
75340;SDS011;64091;47.562;18.920;2022-10-30T08:52:53;39.80;;;21.70;;
75340;SDS011;64091;47.562;18.920;2022-10-30T08:55:19;18.40;;;13.10;;
75340;SDS011;64091;47.562;18.920;2022-10-30T08:57:44;18.80;;;12.30;;
75340;SDS011;64091;47.562;18.920;2022-10-30T09:00:10;33.60;;;24.30;;
75340;SDS011;64091;47.562;18.920;2022-10-30T09:02:36;27.80;;;17.30;;
75340;SDS011;64091;47.562;18.920;2022-10-30T09:05:05;18.90;;;13.50;;
75340;SDS011;64091;47.562;18.920;2022-10-30T09:07:32;21.40;;;13.30;;
75340;SDS011;64091;47.562;18.920;2022-10-30T09:09:57;18.10;;;12.00;;
75340;SDS011;64091;47.562;18.920;2022-10-30T09:12:23;17.40;;;11.60;;
75340;SDS011;64091;47.562;18.920;2022-10-30T09:14:48;19.50;;;13.50;;
75340;SDS011;64091;47.562;18.920;2022-10-30T09:17:14;17.70;;;12.40;;
75340;SDS011;64091;47.562;18.920;2022-10-30T09:19:39;18.30;;;12.00;;
75340;SDS011;64091;47.562;18.920;2022-10-30T09:22:05;19.70;;;12.50;;
75340;SDS011;64091;47.562;18.920;2022-10-30T09:24:31;18.80;;;13.10;;
75340;SDS011;64091;47.562;18.920;2022-10-30T09:26:56;17.90;;;12.10;;
75340;SDS011;64091;47.562;18.920;2022-10-30T09:29:22;17.70;;;12.10;;
75340;SDS011;64091;47.562;18.920;2022-10-30T09:31:47;17.30;;;11.40;;
75340;SDS011;64091;47.562;18.920;2022-10-30T09:34:15;14.70;;;10.90;;
75340;SDS011;64091;47.562;18.920;2022-10-30T09:36:41;15.10;;;10.90;;
75340;SDS011;64091;47.562;18.920;2022-10-30T09:39:12;14.50;;;10.90;;
75340;SDS011;64091;47.562;18.920;2022-10-30T09:58:50;17.70;;;12.10;;
75340;SDS011;64091;47.562;18.920;2022-10-30T10:01:26;16.10;;;11.20;;
75340;SDS011;64091;47.562;18.920;2022-10-30T10:06:20;15.20;;;11.50;;
75340;SDS011;64091;47.562;18.920;2022-10-30T10:09:00;15.20;;;10.70;;
75340;SDS011;64091;47.562;18.920;2022-10-30T10:11:31;14.20;;;10.60;;
75340;SDS011;64091;47.562;18.920;2022-10-30T10:14:03;14.50;;;11.10;;
75340;SDS011;64091;47.562;18.920;2022-10-30T10:16:37;15.80;;;12.50;;
75340;SDS011;64091;47.562;18.920;2022-10-30T10:21:56;16.00;;;12.00;;
75340;SDS011;64091;47.562;18.920;2022-10-30T10:24:24;16.10;;;11.20;;
75340;SDS011;64091;47.562;18.920;2022-10-30T10:27:17;15.10;;;10.50;;
75340;SDS011;64091;47.562;18.920;2022-10-30T10:38:00;16.30;;;12.20;;
75340;SDS011;64091;47.562;18.920;2022-10-30T10:40:43;20.80;;;16.00;;
75340;SDS011;64091;47.562;18.920;2022-10-30T10:51:39;23.90;;;17.10;;
75340;SDS011;64091;47.562;18.920;2022-10-30T10:54:10;21.40;;;15.60;;
75340;SDS011;64091;47.562;18.920;2022-10-30T10:56:47;21.60;;;15.00;;
75340;SDS011;64091;47.562;18.920;2022-10-30T10:59:18;20.30;;;14.50;;
75340;SDS011;64091;47.562;18.920;2022-10-30T11:01:51;21.70;;;14.30;;
75340;SDS011;64091;47.562;18.920;2022-10-30T11:04:40;20.70;;;13.50;;
75340;SDS011;64091;47.562;18.920;2022-10-30T11:07:25;20.40;;;14.40;;
75340;SDS011;64091;47.562;18.920;2022-10-30T11:09:55;20.40;;;13.50;;
75340;SDS011;64091;47.562;18.920;2022-10-30T11:12:28;18.50;;;12.80;;
75340;SDS011;64091;47.562;18.920;2022-10-30T11:14:54;19.80;;;13.60;;
75340;SDS011;64091;47.562;18.920;2022-10-30T11:17:23;18.90;;;13.90;;
75340;SDS011;64091;47.562;18.920;2022-10-30T11:19:57;17.30;;;13.10;;
75340;SDS011;64091;47.562;18.920;2022-10-30T11:22:28;19.10;;;13.20;;
75340;SDS011;64091;47.562;18.920;2022-10-30T11:24:57;18.70;;;13.90;;
75340;SDS011;64091;47.562;18.920;2022-10-30T11:27:41;19.60;;;13.40;;
75340;SDS011;64091;47.562;18.920;2022-10-30T11:30:16;17.90;;;14.00;;
75340;SDS011;64091;47.562;18.920;2022-10-30T11:32:43;18.40;;;14.40;;
75340;SDS011;64091;47.562;18.920;2022-10-30T11:37:35;17.50;;;14.20;;
75340;SDS011;64091;47.562;18.920;2022-10-30T11:40:06;20.70;;;15.00;;
75340;SDS011;64091;47.562;18.920;2022-10-30T11:42:43;18.70;;;14.40;;
75340;SDS011;64091;47.562;18.920;2022-10-30T11:45:19;23.40;;;17.10;;
75340;SDS011;64091;47.562;18.920;2022-10-30T11:47:51;22.70;;;15.90;;
75340;SDS011;64091;47.562;18.920;2022-10-30T11:50:30;21.70;;;15.30;;
75340;SDS011;64091;47.562;18.920;2022-10-30T11:53:00;21.20;;;14.30;;
75340;SDS011;64091;47.562;18.920;2022-10-30T11:55:37;22.50;;;15.60;;
75340;SDS011;64091;47.562;18.920;2022-10-30T11:58:04;24.00;;;15.50;;
75340;SDS011;64091;47.562;18.920;2022-10-30T12:00:33;24.90;;;14.40;;
75340;SDS011;64091;47.562;18.920;2022-10-30T12:03:00;19.90;;;15.10;;
75340;SDS011;64091;47.562;18.920;2022-10-30T12:07:51;24.20;;;15.30;;
75340;SDS011;64091;47.562;18.920;2022-10-30T12:10:24;24.00;;;15.80;;
75340;SDS011;64091;47.562;18.920;2022-10-30T12:12:52;23.80;;;15.10;;
75340;SDS011;64091;47.562;18.920;2022-10-30T12:15:20;23.80;;;15.40;;
75340;SDS011;64091;47.562;18.920;2022-10-30T12:20:17;25.50;;;16.10;;
75340;SDS011;64091;47.562;18.920;2022-10-30T12:22:43;24.20;;;15.90;;
75340;SDS011;64091;47.562;18.920;2022-10-30T12:28:05;23.30;;;15.60;;
75340;SDS011;64091;47.562;18.920;2022-10-30T12:30:48;26.90;;;15.50;;
75340;SDS011;64091;47.562;18.920;2022-10-30T12:35:52;25.30;;;14.50;;
75340;SDS011;64091;47.562;18.920;2022-10-30T12:44:28;24.90;;;16.10;;
75340;SDS011;64091;47.562;18.920;2022-10-30T12:49:40;25.90;;;15.80;;
75340;SDS011;64091;47.562;18.920;2022-10-30T12:52:12;23.40;;;15.50;;
75340;SDS011;64091;47.562;18.920;2022-10-30T12:54:57;22.20;;;15.00;;
75340;SDS011;64091;47.562;18.920;2022-10-30T12:57:34;22.60;;;15.60;;
75340;SDS011;64091;47.562;18.920;2022-10-30T13:00:14;23.50;;;15.90;;
75340;SDS011;64091;47.562;18.920;2022-10-30T13:05:25;22.90;;;14.50;;
75340;SDS011;64091;47.562;18.920;2022-10-30T13:08:31;22.50;;;14.70;;
75340;SDS011;64091;47.562;18.920;2022-10-30T13:27:54;19.30;;;14.60;;
75340;SDS011;64091;47.562;18.920;2022-10-30T13:30:41;22.90;;;15.20;;
75340;SDS011;64091;47.562;18.920;2022-10-30T13:36:07;22.00;;;15.90;;
75340;SDS011;64091;47.562;18.920;2022-10-30T13:38:35;24.10;;;16.00;;
75340;SDS011;64091;47.562;18.920;2022-10-30T13:41:15;23.10;;;15.60;;
75340;SDS011;64091;47.562;18.920;2022-10-30T13:47:07;24.20;;;16.00;;
75340;SDS011;64091;47.562;18.920;2022-10-30T13:52:28;23.60;;;16.20;;
75340;SDS011;64091;47.562;18.920;2022-10-30T13:54:59;23.60;;;15.70;;
75340;SDS011;64091;47.562;18.920;2022-10-30T14:00:22;23.30;;;15.20;;
75340;SDS011;64091;47.562;18.920;2022-10-30T14:05:27;22.40;;;14.70;;
75340;SDS011;64091;47.562;18.920;2022-10-30T14:08:06;22.60;;;15.00;;
75340;SDS011;64091;47.562;18.920;2022-10-30T14:16:04;19.90;;;13.60;;
75340;SDS011;64091;47.562;18.920;2022-10-30T14:18:43;18.30;;;13.20;;
75340;SDS011;64091;47.562;18.920;2022-10-30T14:26:40;21.90;;;14.30;;
75340;SDS011;64091;47.562;18.920;2022-10-30T14:54:58;25.00;;;16.50;;
75340;SDS011;64091;47.562;18.920;2022-10-30T14:57:53;24.10;;;16.30;;
75340;SDS011;64091;47.562;18.920;2022-10-30T15:00:39;24.70;;;15.00;;
75340;SDS011;64091;47.562;18.920;2022-10-30T15:05:55;25.00;;;16.00;;
75340;SDS011;64091;47.562;18.920;2022-10-30T15:14:14;27.50;;;15.50;;
75340;SDS011;64091;47.562;18.920;2022-10-30T15:16:45;25.50;;;14.80;;
75340;SDS011;64091;47.562;18.920;2022-10-30T15:19:13;27.50;;;17.70;;
75340;SDS011;64091;47.562;18.920;2022-10-30T15:21:43;24.00;;;15.90;;
75340;SDS011;64091;47.562;18.920;2022-10-30T15:24:14;25.80;;;15.00;;
75340;SDS011;64091;47.562;18.920;2022-10-30T15:26:41;22.20;;;15.00;;
75340;SDS011;64091;47.562;18.920;2022-10-30T15:29:12;21.80;;;15.30;;
75340;SDS011;64091;47.562;18.920;2022-10-30T15:31:42;21.20;;;15.00;;
75340;SDS011;64091;47.562;18.920;2022-10-30T15:34:20;24.90;;;16.50;;
75340;SDS011;64091;47.562;18.920;2022-10-30T15:36:49;22.60;;;15.00;;
75340;SDS011;64091;47.562;18.920;2022-10-30T15:39:15;25.30;;;16.00;;
75340;SDS011;64091;47.562;18.920;2022-10-30T15:44:18;24.10;;;15.10;;
75340;SDS011;64091;47.562;18.920;2022-10-30T15:46:55;23.70;;;14.80;;
75340;SDS011;64091;47.562;18.920;2022-10-30T15:49:33;24.20;;;15.30;;
75340;SDS011;64091;47.562;18.920;2022-10-30T15:52:00;25.40;;;16.20;;
75340;SDS011;64091;47.562;18.920;2022-10-30T15:54:27;21.60;;;15.00;;
75340;SDS011;64091;47.562;18.920;2022-10-30T15:56:57;25.10;;;15.90;;
75340;SDS011;64091;47.562;18.920;2022-10-30T15:59:24;27.40;;;15.80;;
75340;SDS011;64091;47.562;18.920;2022-10-30T16:01:53;25.20;;;15.10;;
75340;SDS011;64091;47.562;18.920;2022-10-30T16:04:21;23.70;;;14.30;;
75340;SDS011;64091;47.562;18.920;2022-10-30T16:06:49;22.20;;;15.00;;
75340;SDS011;64091;47.562;18.920;2022-10-30T16:09:16;23.70;;;15.90;;
75340;SDS011;64091;47.562;18.920;2022-10-30T16:11:42;28.40;;;17.90;;
75340;SDS011;64091;47.562;18.920;2022-10-30T16:14:11;24.10;;;15.70;;
75340;SDS011;64091;47.562;18.920;2022-10-30T16:16:46;27.90;;;17.60;;
75340;SDS011;64091;47.562;18.920;2022-10-30T16:19:17;26.00;;;17.30;;
75340;SDS011;64091;47.562;18.920;2022-10-30T16:21:47;25.60;;;16.40;;
75340;SDS011;64091;47.562;18.920;2022-10-30T16:24:12;28.90;;;17.50;;
75340;SDS011;64091;47.562;18.920;2022-10-30T16:26:41;28.20;;;17.70;;
75340;SDS011;64091;47.562;18.920;2022-10-30T16:31:42;27.20;;;17.10;;
75340;SDS011;64091;47.562;18.920;2022-10-30T16:34:24;28.50;;;17.10;;
75340;SDS011;64091;47.562;18.920;2022-10-30T16:36:51;27.60;;;17.90;;
75340;SDS011;64091;47.562;18.920;2022-10-30T16:39:17;29.20;;;17.70;;
75340;SDS011;64091;47.562;18.920;2022-10-30T16:41:43;24.90;;;17.30;;
75340;SDS011;64091;47.562;18.920;2022-10-30T16:44:13;29.20;;;17.50;;
75340;SDS011;64091;47.562;18.920;2022-10-30T16:46:51;27.20;;;17.30;;
75340;SDS011;64091;47.562;18.920;2022-10-30T16:49:29;27.90;;;17.30;;
75340;SDS011;64091;47.562;18.920;2022-10-30T16:51:57;28.00;;;18.20;;
75340;SDS011;64091;47.562;18.920;2022-10-30T16:54:31;27.50;;;18.90;;
75340;SDS011;64091;47.562;18.920;2022-10-30T16:57:00;30.70;;;18.30;;
75340;SDS011;64091;47.562;18.920;2022-10-30T17:01:56;32.10;;;18.00;;
75340;SDS011;64091;47.562;18.920;2022-10-30T17:04:24;29.50;;;18.40;;
75340;SDS011;64091;47.562;18.920;2022-10-30T17:06:51;31.20;;;18.90;;
75340;SDS011;64091;47.562;18.920;2022-10-30T17:09:29;28.90;;;19.20;;
75340;SDS011;64091;47.562;18.920;2022-10-30T17:12:10;27.20;;;18.30;;
75340;SDS011;64091;47.562;18.920;2022-10-30T17:20:04;39.20;;;27.60;;
75340;SDS011;64091;47.562;18.920;2022-10-30T17:22:30;39.20;;;24.90;;
75340;SDS011;64091;47.562;18.920;2022-10-30T17:24:56;28.30;;;19.50;;
75340;SDS011;64091;47.562;18.920;2022-10-30T17:29:53;27.30;;;17.20;;
75340;SDS011;64091;47.562;18.920;2022-10-30T17:32:23;23.90;;;16.00;;
75340;SDS011;64091;47.562;18.920;2022-10-30T17:34:54;24.60;;;17.10;;
75340;SDS011;64091;47.562;18.920;2022-10-30T17:37:23;21.60;;;15.60;;
75340;SDS011;64091;47.562;18.920;2022-10-30T17:39:48;20.20;;;14.20;;